Time;durP1;ratioP1;P1;durP2;ratioP2;P2;SDS_P1;SDS_P2;PMS_P1;PMS_P2;Temp;Humidity;BMP_temperature;BMP_pressure;BME280_temperature;BME280_humidity;BME280_pressure;Samples;Min_cycle;Max_cycle;Signal;HPM_P1;HPM_P2
2022/03/01 00:01:49;;;;;;;13.87;7.00;;;;;;;3.52;100.00;100400.34;4970734;28;20222;-79
2022/03/01 00:04:17;;;;;;;12.90;7.20;;;;;;;3.53;100.00;100402.06;5025554;28;20205;-79
2022/03/01 00:06:48;;;;;;;12.07;7.40;;;;;;;3.43;100.00;100412.69;5018756;28;20190;-79
2022/03/01 00:09:18;;;;;;;13.60;7.40;;;;;;;3.37;100.00;100406.66;5030249;28;20193;-79
2022/03/01 00:11:47;;;;;;;12.87;7.20;;;;;;;3.46;100.00;100414.38;5030973;28;20193;-80
2022/03/01 00:14:15;;;;;;;12.97;7.17;;;;;;;3.43;100.00;100411.81;5025811;28;20192;-79
2022/03/01 00:16:45;;;;;;;13.67;7.43;;;;;;;3.48;100.00;100414.38;5086906;28;20206;-79
2022/03/01 00:19:13;;;;;;;14.37;7.03;;;;;;;3.43;100.00;100409.19;5085331;28;20198;-80
2022/03/01 00:21:41;;;;;;;14.17;7.20;;;;;;;3.50;100.00;100423.94;5092697;28;20212;-79
2022/03/01 00:24:10;;;;;;;12.93;7.60;;;;;;;3.46;100.00;100417.00;5088783;28;20207;-79
2022/03/01 00:26:41;;;;;;;12.23;7.20;;;;;;;3.38;100.00;100406.66;5085285;28;20199;-79
2022/03/01 00:29:09;;;;;;;13.80;7.43;;;;;;;3.30;100.00;100407.66;5094637;28;20206;-79
2022/03/01 00:31:37;;;;;;;13.97;7.43;;;;;;;3.30;100.00;100410.28;5087971;28;20192;-79
2022/03/01 00:34:06;;;;;;;11.00;6.80;;;;;;;3.23;100.00;100412.09;5089167;28;20204;-81
2022/03/01 00:36:36;;;;;;;15.50;7.83;;;;;;;3.16;100.00;100410.44;5087994;28;20184;-79
2022/03/01 00:39:05;;;;;;;12.20;7.27;;;;;;;3.19;100.00;100412.19;5119903;27;20193;-79
2022/03/01 00:41:34;;;;;;;14.03;7.03;;;;;;;3.05;100.00;100410.59;5173670;27;20227;-79
2022/03/01 00:44:04;;;;;;;13.13;7.70;;;;;;;2.90;100.00;100415.19;5169952;27;20200;-78
2022/03/01 00:46:33;;;;;;;12.17;7.40;;;;;;;2.98;100.00;100415.94;5170596;27;20193;-79
2022/03/01 00:49:01;;;;;;;14.97;8.27;;;;;;;3.00;100.00;100409.81;5169196;27;20215;-79
2022/03/01 00:51:30;;;;;;;12.77;7.20;;;;;;;2.86;100.00;100419.56;5169242;27;20389;-79
2022/03/01 00:53:59;;;;;;;14.80;7.87;;;;;;;2.82;100.00;100420.50;5165494;27;20200;-79
2022/03/01 00:56:27;;;;;;;14.87;7.53;;;;;;;2.92;100.00;100413.41;5169870;27;20193;-79
2022/03/01 00:58:55;;;;;;;14.23;8.30;;;;;;;2.86;100.00;100401.25;5170004;27;20291;-79
2022/03/01 01:01:25;;;;;;;16.83;8.47;;;;;;;2.82;100.00;100410.03;5173044;27;20241;-79
2022/03/01 01:03:53;;;;;;;15.07;8.03;;;;;;;2.79;100.00;100415.28;5170821;27;20196;-79
2022/03/01 01:06:21;;;;;;;14.37;8.37;;;;;;;2.72;100.00;100401.44;5171478;27;20201;-79
2022/03/01 01:08:50;;;;;;;15.83;8.07;;;;;;;2.71;100.00;100406.69;5176556;27;20248;-79
2022/03/01 01:11:18;;;;;;;15.20;7.47;;;;;;;2.65;100.00;100405.00;5170570;27;20197;-79
2022/03/01 01:13:47;;;;;;;14.07;7.80;;;;;;;2.55;100.00;100406.84;5167779;27;20189;-79
2022/03/01 01:16:16;;;;;;;14.27;7.67;;;;;;;2.53;100.00;100410.38;5172772;27;20237;-79
2022/03/01 01:18:46;;;;;;;13.60;7.63;;;;;;;2.51;100.00;100410.41;5172007;27;20197;-79
2022/03/01 01:21:15;;;;;;;16.47;8.53;;;;;;;2.55;100.00;100417.31;5170556;27;20232;-79
2022/03/01 01:23:44;;;;;;;12.77;7.80;;;;;;;2.55;100.00;100417.31;5167792;27;20189;-79
2022/03/01 01:26:14;;;;;;;16.60;8.17;;;;;;;2.50;100.00;100416.47;5173118;27;20192;-79
2022/03/01 01:28:44;;;;;;;14.87;8.53;;;;;;;2.45;100.00;100420.91;5167044;27;20656;-79
2022/03/01 01:31:12;;;;;;;12.43;7.43;;;;;;;2.52;100.00;100416.50;5169433;27;20443;-79
2022/03/01 01:33:40;;;;;;;16.30;8.23;;;;;;;2.42;100.00;100407.88;5171344;27;20213;-79
2022/03/01 01:36:11;;;;;;;14.97;8.10;;;;;;;2.48;100.00;100407.78;5164029;27;20242;-79
2022/03/01 01:38:41;;;;;;;13.80;7.83;;;;;;;2.41;100.00;100410.50;5176335;27;20197;-79
2022/03/01 01:41:10;;;;;;;15.53;8.00;;;;;;;2.37;100.00;100408.81;5175758;27;20309;-79
2022/03/01 01:43:38;;;;;;;13.60;7.60;;;;;;;2.29;100.00;100407.13;5171554;27;20181;-79
2022/03/01 01:46:06;;;;;;;15.70;7.43;;;;;;;2.26;100.00;100414.16;5180299;27;20257;-79
2022/03/01 01:48:35;;;;;;;14.87;7.50;;;;;;;2.20;100.00;100419.41;5174147;27;20683;-79
2022/03/01 01:51:03;;;;;;;13.73;7.50;;;;;;;2.20;100.00;100420.28;5167914;27;20189;-81
2022/03/01 01:53:33;;;;;;;15.43;7.97;;;;;;;2.16;100.00;100415.13;5176355;27;20201;-79
2022/03/01 01:56:02;;;;;;;14.97;8.57;;;;;;;2.03;100.00;100422.22;5175160;27;20193;-79
2022/03/01 01:58:30;;;;;;;18.13;8.40;;;;;;;2.09;100.00;100416.91;5169808;27;20204;-79
2022/03/01 02:01:00;;;;;;;13.67;8.00;;;;;;;2.11;100.00;100420.38;5173684;27;20196;-79
2022/03/01 02:03:31;;;;;;;13.70;8.13;;;;;;;2.14;100.00;100427.34;5167148;27;20246;-80
2022/03/01 02:05:59;;;;;;;13.23;7.87;;;;;;;2.17;100.00;100422.06;5090703;28;20188;-79
2022/03/01 02:08:30;;;;;;;14.20;7.90;;;;;;;2.05;100.00;100423.06;5088911;28;20199;-79
2022/03/01 02:11:01;;;;;;;15.10;8.43;;;;;;;2.12;100.00;100416.88;5088318;28;20187;-79
2022/03/01 02:13:30;;;;;;;12.70;7.70;;;;;;;2.03;100.00;100406.53;5086945;28;20207;-79
2022/03/01 02:15:59;;;;;;;15.97;8.50;;;;;;;1.90;100.00;100402.28;5048948;28;20201;-79
2022/03/01 02:18:29;;;;;;;15.80;8.30;;;;;;;1.84;100.00;100411.06;5053514;28;20197;-79
2022/03/01 02:20:59;;;;;;;12.70;7.93;;;;;;;1.87;100.00;100395.34;5042873;28;20197;-79
2022/03/01 02:23:27;;;;;;;14.23;7.50;;;;;;;1.84;100.00;100391.91;5053690;28;20217;-79
2022/03/01 02:25:56;;;;;;;13.90;8.17;;;;;;;1.85;100.00;100399.72;5052121;28;20208;-79
2022/03/01 02:28:24;;;;;;;16.17;8.40;;;;;;;1.80;100.00;100401.50;5050982;28;20201;-79
2022/03/01 02:30:52;;;;;;;13.73;7.60;;;;;;;1.80;100.00;100398.03;5043470;28;20209;-79
2022/03/01 02:33:20;;;;;;;17.77;8.90;;;;;;;1.67;100.00;100400.75;5054857;28;20203;-79
2022/03/01 02:35:50;;;;;;;15.07;8.03;;;;;;;1.69;100.00;100392.88;5089702;28;20210;-79
2022/03/01 02:38:24;;;;;;;14.33;8.40;;;;;;;1.76;100.00;100396.31;5175015;27;20228;-79
2022/03/01 02:40:53;;;;;;;17.10;8.60;;;;;;;1.78;100.00;100394.56;5170743;27;20231;-79
2022/03/01 02:43:23;;;;;;;14.43;8.47;;;;;;;1.67;100.00;100389.44;5169954;27;20217;-79
2022/03/01 02:45:54;;;;;;;15.77;8.43;;;;;;;1.67;100.00;100389.44;5176269;27;20192;-79
2022/03/01 02:48:22;;;;;;;14.50;7.93;;;;;;;1.64;100.00;100392.03;5167481;27;20196;-78
2022/03/01 02:50:51;;;;;;;13.50;8.13;;;;;;;1.60;100.00;100398.19;5174086;27;20185;-78
2022/03/01 02:53:19;;;;;;;17.57;8.30;;;;;;;1.62;100.00;100388.59;5173278;27;20193;-79
2022/03/01 02:55:50;;;;;;;16.63;9.03;;;;;;;1.51;100.00;100386.06;5169661;27;20222;-79
2022/03/01 02:58:19;;;;;;;14.70;8.47;;;;;;;1.45;100.00;100383.50;5173623;27;20201;-79
2022/03/01 03:00:48;;;;;;;14.47;8.40;;;;;;;1.47;100.00;100381.75;5174730;27;20201;-79
2022/03/01 03:03:17;;;;;;;13.73;8.53;;;;;;;1.41;100.00;100380.03;5171847;27;20212;-79
2022/03/01 03:05:45;;;;;;;14.73;8.23;;;;;;;1.48;100.00;100385.22;5165823;27;20275;-79
2022/03/01 03:08:16;;;;;;;13.43;8.17;;;;;;;1.33;100.00;100378.34;5173772;27;20185;-79
2022/03/01 03:10:50;;;;;;;18.13;8.80;;;;;;;1.35;100.00;100385.31;5084358;28;20194;-80
2022/03/01 03:13:21;;;;;;;17.37;9.87;;;;;;;1.29;100.00;100380.13;5085843;28;20204;-79
2022/03/01 03:15:49;;;;;;;15.53;8.53;;;;;;;1.29;100.00;100380.13;5083636;28;20223;-79
2022/03/01 03:18:18;;;;;;;16.60;8.57;;;;;;;1.17;100.00;100382.81;5083549;28;20259;-79
2022/03/01 03:20:46;;;;;;;15.10;8.77;;;;;;;1.32;100.00;100377.50;5086056;28;20207;-79
2022/03/01 03:23:16;;;;;;;16.97;8.67;;;;;;;1.29;100.00;100371.44;5086745;28;20228;-79
2022/03/01 03:25:45;;;;;;;15.20;8.57;;;;;;;1.21;100.00;100376.69;5085865;28;20192;-79
2022/03/01 03:28:13;;;;;;;14.20;8.37;;;;;;;1.28;100.00;100377.53;5099533;27;20208;-79
2022/03/01 03:30:43;;;;;;;16.87;8.43;;;;;;;1.29;100.00;100369.69;5173978;27;20196;-79
2022/03/01 03:33:11;;;;;;;14.97;8.57;;;;;;;1.20;100.00;100379.31;5171575;27;20197;-79
2022/03/01 03:35:40;;;;;;;14.80;8.13;;;;;;;1.27;100.00;100375.81;5165620;27;20250;-78
2022/03/01 03:38:08;;;;;;;14.97;7.90;;;;;;;1.23;100.00;100374.94;5169229;27;20193;-79
2022/03/01 03:40:36;;;;;;;15.13;8.07;;;;;;;1.23;100.00;100384.50;5168571;27;20221;-79
2022/03/01 03:43:05;;;;;;;15.40;8.47;;;;;;;1.24;100.00;100374.06;5169941;27;20220;-79
2022/03/01 03:45:33;;;;;;;16.63;7.77;;;;;;;1.24;100.00;100379.28;5167184;27;20208;-79
2022/03/01 03:48:03;;;;;;;19.17;8.70;;;;;;;1.31;100.00;100378.38;5165888;27;20193;-79
2022/03/01 03:50:33;;;;;;;13.77;8.47;;;;;;;1.34;100.00;100387.91;5168027;27;20189;-79
2022/03/01 03:53:02;;;;;;;15.17;7.97;;;;;;;1.36;100.00;100386.19;5176827;27;20229;-79
2022/03/01 03:55:31;;;;;;;13.63;8.50;;;;;;;1.21;100.00;100384.53;5173955;27;20200;-79
2022/03/01 03:57:59;;;;;;;15.80;8.97;;;;;;;1.31;100.00;100388.81;5173292;27;20185;-79
2022/03/01 04:00:28;;;;;;;14.43;8.10;;;;;;;1.31;100.00;100380.97;5166904;27;20635;-80
2022/03/01 04:02:58;;;;;;;14.63;7.97;;;;;;;1.32;100.00;100389.66;5168824;27;20721;-79
2022/03/01 04:05:28;;;;;;;14.93;8.67;;;;;;;1.44;100.00;100392.19;5171737;27;20205;-79
2022/03/01 04:07:59;;;;;;;16.27;8.30;;;;;;;1.35;100.00;100385.31;5157951;27;20624;-79
2022/03/01 04:10:28;;;;;;;15.83;8.27;;;;;;;1.45;100.00;100380.91;5172841;27;20213;-80
2022/03/01 04:12:56;;;;;;;16.57;8.93;;;;;;;1.38;100.00;100384.44;5168872;27;20196;-79
2022/03/01 04:15:25;;;;;;;13.73;8.03;;;;;;;1.37;100.00;100390.53;5165746;27;20197;-79
2022/03/01 04:17:54;;;;;;;15.17;8.87;;;;;;;1.21;100.00;100388.88;5169254;27;20215;-79
2022/03/01 04:20:23;;;;;;;16.60;8.87;;;;;;;1.21;100.00;100381.06;5169966;27;20700;-79
2022/03/01 04:22:53;;;;;;;16.40;9.10;;;;;;;1.30;100.00;100387.09;5168779;27;20216;-79
2022/03/01 04:25:22;;;;;;;14.87;9.07;;;;;;;1.34;100.00;100387.91;5169157;27;20188;-80
2022/03/01 04:27:50;;;;;;;18.07;10.03;;;;;;;1.37;100.00;100390.53;5171691;27;20197;-80
2022/03/01 04:30:19;;;;;;;17.87;9.90;;;;;;;1.41;100.00;100380.03;5168516;27;20195;-79
2022/03/01 04:32:47;;;;;;;13.43;8.63;;;;;;;1.39;100.00;100376.56;5170384;27;20196;-79
2022/03/01 04:35:15;;;;;;;16.03;8.83;;;;;;;1.47;100.00;100383.50;5165177;27;20189;-79
2022/03/01 04:37:44;;;;;;;16.07;8.90;;;;;;;1.40;100.00;100377.44;5173252;27;20680;-79
2022/03/01 04:40:18;;;;;;;15.73;8.57;;;;;;;1.24;100.00;100376.66;5166244;27;20687;-79
2022/03/01 04:42:46;;;;;;;15.03;8.80;;;;;;;1.17;100.00;100385.44;5172058;27;20696;-79
2022/03/01 04:45:15;;;;;;;14.40;8.47;;;;;;;1.07;100.00;100383.75;5171456;27;20193;-79
2022/03/01 04:47:44;;;;;;;16.30;8.50;;;;;;;1.04;100.00;100376.78;5164913;27;20199;-79
2022/03/01 04:50:13;;;;;;;16.77;8.97;;;;;;;0.97;100.00;100380.34;5175867;27;20200;-79
2022/03/01 04:52:42;;;;;;;14.67;8.60;;;;;;;0.94;100.00;100369.03;5170967;27;20192;-79
2022/03/01 04:55:14;;;;;;;15.27;8.37;;;;;;;1.02;100.00;100373.34;5169228;27;20189;-79
2022/03/01 04:57:43;;;;;;;15.97;8.80;;;;;;;0.95;100.00;100369.00;5166049;27;20200;-79
2022/03/01 05:00:13;;;;;;;14.47;8.83;;;;;;;0.83;100.00;100374.31;5170832;27;20220;-80
2022/03/01 05:02:43;;;;;;;15.30;8.70;;;;;;;0.67;100.00;100372.63;5140941;27;20185;-79
2022/03/01 05:05:12;;;;;;;19.53;9.40;;;;;;;0.62;100.00;100385.69;5167453;27;20257;-80
2022/03/01 05:07:44;;;;;;;19.67;10.20;;;;;;;0.53;100.00;100386.59;5108908;28;20202;-80
2022/03/01 05:10:17;;;;;;;25.17;13.80;;;;;;;0.49;100.00;100391.84;5110693;28;20191;-79
2022/03/01 05:12:48;;;;;;;21.50;11.93;;;;;;;0.50;100.00;100390.97;5112866;28;20213;-79
2022/03/01 05:15:19;;;;;;;20.97;11.27;;;;;;;0.41;100.00;100391.88;5115947;28;20195;-80
2022/03/01 05:17:48;;;;;;;15.63;8.90;;;;;;;0.35;100.00;100389.25;5111527;28;20221;-80
2022/03/01 05:20:18;;;;;;;17.10;9.33;;;;;;;0.32;100.00;100389.28;5105564;28;20247;-80
2022/03/01 05:22:47;;;;;;;16.20;9.60;;;;;;;0.25;100.00;100392.75;5110922;28;20195;-80
2022/03/01 05:25:20;;;;;;;17.37;9.03;;;;;;;0.31;100.00;100392.75;5123897;27;20304;-79
2022/03/01 05:27:50;;;;;;;16.37;8.70;;;;;;;0.30;100.00;100397.97;5133016;27;20183;-79
2022/03/01 05:30:22;;;;;;;15.70;8.87;;;;;;;0.29;100.00;100397.13;5126837;27;20193;-80
2022/03/01 05:32:52;;;;;;;17.17;9.47;;;;;;;0.23;100.00;100400.59;5132929;27;20231;-79
2022/03/01 05:35:23;;;;;;;17.13;9.80;;;;;;;0.30;100.00;100400.59;5130290;27;20610;-79
2022/03/01 05:37:53;;;;;;;18.87;10.17;;;;;;;0.21;100.00;100397.13;5135530;27;20187;-79
2022/03/01 05:40:38;;;;;;;18.83;10.57;;;;;;;0.35;100.00;100396.22;5130047;27;20218;-79
2022/03/01 05:43:08;;;;;;;18.67;10.13;;;;;;;0.39;100.00;100400.56;5126068;27;20206;-79
2022/03/01 05:45:39;;;;;;;17.87;9.93;;;;;;;0.66;100.00;100405.66;5144218;27;20209;-79
2022/03/01 05:48:07;;;;;;;15.50;9.57;;;;;;;0.59;100.00;100409.19;5174633;27;20197;-79
2022/03/01 05:50:36;;;;;;;15.97;9.33;;;;;;;0.39;100.00;100408.38;5171231;27;20185;-80
2022/03/01 05:53:05;;;;;;;20.23;11.20;;;;;;;0.18;100.00;100410.13;5169158;27;20185;-79
2022/03/01 05:55:35;;;;;;;20.37;12.13;;;;;;;0.24;100.00;100419.69;5173512;27;20189;-79
2022/03/01 05:58:03;;;;;;;21.87;12.87;;;;;;;0.11;100.00;100417.97;5163388;27;20197;-79
2022/03/01 06:00:32;;;;;;;23.40;12.60;;;;;;;0.04;100.00;100414.50;5169160;27;20201;-80
2022/03/01 06:03:00;;;;;;;17.33;10.03;;;;;;;-0.02;100.00;100423.19;5168413;27;20201;-80
2022/03/01 06:05:29;;;;;;;21.00;9.93;;;;;;;-0.13;100.00;100418.84;5166447;27;20763;-79
2022/03/01 06:07:59;;;;;;;17.77;9.97;;;;;;;-0.26;100.00;100402.38;5174456;27;20185;-79
2022/03/01 06:10:30;;;;;;;18.03;10.10;;;;;;;-0.13;100.00;100416.25;5171784;27;20205;-80
2022/03/01 06:13:01;;;;;;;20.00;11.43;;;;;;;-0.09;100.00;100421.47;5169328;27;20249;-80
2022/03/01 06:15:31;;;;;;;22.20;12.13;;;;;;;-0.19;100.00;100424.06;5169733;27;20215;-80
2022/03/01 06:17:59;;;;;;;22.67;12.50;;;;;;;-0.17;100.00;100417.13;5175427;27;20182;-79
2022/03/01 06:20:28;;;;;;;22.60;13.27;;;;;;;0.08;100.00;100421.44;5167814;27;20498;-79
2022/03/01 06:22:57;;;;;;;108.70;57.73;;;;;;;0.21;100.00;100419.69;5029184;28;20524;-80
2022/03/01 06:25:25;;;;;;;35.37;22.50;;;;;;;0.19;100.00;100414.50;5030019;28;20221;-79
2022/03/01 06:27:56;;;;;;;24.10;13.23;;;;;;;0.16;100.00;100421.44;5028572;28;20703;-79
2022/03/01 06:30:27;;;;;;;20.37;11.57;;;;;;;0.14;100.00;100426.66;4993859;28;20191;-79
2022/03/01 06:32:55;;;;;;;23.40;12.87;;;;;;;-0.11;100.00;100425.78;4993773;28;20282;-79
2022/03/01 06:35:24;;;;;;;20.47;10.23;;;;;;;0.05;100.00;100421.44;4988672;28;20203;-79
2022/03/01 06:37:53;;;;;;;19.03;10.20;;;;;;;0.01;100.00;100421.47;4987382;28;20210;-79
2022/03/01 06:40:22;;;;;;;15.37;9.80;;;;;;;-0.13;100.00;100429.28;5013923;27;20214;-79
2022/03/01 06:42:51;;;;;;;18.63;10.67;;;;;;;-0.12;100.00;100434.47;5131905;27;20186;-79
2022/03/01 06:45:19;;;;;;;20.70;10.23;;;;;;;-0.08;100.00;100427.53;5131350;27;20218;-79
2022/03/01 06:47:51;;;;;;;18.63;10.07;;;;;;;-0.20;100.00;100427.53;5139620;27;20195;-79
2022/03/01 06:50:20;;;;;;;18.90;10.53;;;;;;;-0.12;100.00;100429.25;5176666;27;20191;-79
2022/03/01 06:52:49;;;;;;;18.07;10.40;;;;;;;-0.12;100.00;100428.41;5172219;27;20200;-79
2022/03/01 06:55:19;;;;;;;17.07;9.23;;;;;;;0.15;100.00;100435.34;5170900;27;20193;-79
2022/03/01 06:57:47;;;;;;;19.80;10.80;;;;;;;0.15;100.00;100432.72;5167228;27;20189;-80
2022/03/01 07:00:18;;;;;;;26.03;13.20;;;;;;;0.04;100.00;100434.47;5166528;27;20182;-79
2022/03/01 07:02:46;;;;;;;21.47;11.90;;;;;;;0.12;100.00;100437.94;5123362;27;20195;-79
2022/03/01 07:05:17;;;;;;;18.90;10.77;;;;;;;0.12;100.00;100436.22;5172872;27;20224;-79
2022/03/01 07:07:46;;;;;;;18.27;9.40;;;;;;;0.32;100.00;100437.91;5177711;27;20604;-79
2022/03/01 07:10:15;;;;;;;15.67;8.70;;;;;;;0.35;100.00;100433.56;5165845;27;20195;-79
2022/03/01 07:12:45;;;;;;;13.43;7.43;;;;;;;0.59;100.00;100437.84;5171740;27;20245;-79
2022/03/01 07:15:17;;;;;;;12.63;8.07;;;;;;;0.59;100.00;100437.84;5170229;27;20197;-79
2022/03/01 07:17:45;;;;;;;12.80;8.13;;;;;;;0.54;100.00;100435.25;5174295;27;20192;-79
2022/03/01 07:20:17;;;;;;;11.07;7.97;;;;;;;0.55;100.00;100441.31;5164538;27;20197;-79
2022/03/01 07:22:46;;;;;;;13.60;8.33;;;;;;;0.74;100.00;100448.22;5089566;28;20200;-79
2022/03/01 07:25:16;;;;;;;14.37;8.00;;;;;;;0.83;100.00;100450.78;5083612;28;20257;-79
2022/03/01 07:27:46;;;;;;;14.33;8.17;;;;;;;1.02;100.00;100455.94;5082400;28;20192;-80
2022/03/01 07:30:15;;;;;;;13.77;8.00;;;;;;;1.14;100.00;100453.28;5087419;28;20195;-79
2022/03/01 07:32:45;;;;;;;13.93;8.60;;;;;;;1.26;100.00;100452.38;5086911;28;20287;-81
2022/03/01 07:35:14;;;;;;;13.97;8.20;;;;;;;1.28;100.00;100453.22;5085631;28;20298;-79
2022/03/01 07:37:46;;;;;;;13.00;7.30;;;;;;;1.24;100.00;100454.09;5092148;28;20200;-80
2022/03/01 07:40:18;;;;;;;14.47;8.17;;;;;;;1.37;100.00;100446.19;5111988;27;20211;-79
2022/03/01 07:42:48;;;;;;;12.40;7.20;;;;;;;1.48;100.00;100451.34;5169622;27;20197;-79
2022/03/01 07:45:17;;;;;;;12.30;7.20;;;;;;;1.46;100.00;100449.63;5170945;27;20215;-79
2022/03/01 07:47:47;;;;;;;14.03;7.97;;;;;;;1.59;100.00;100454.75;5173684;27;20245;-79
2022/03/01 07:50:15;;;;;;;14.77;8.40;;;;;;;1.53;100.00;100449.56;5173266;27;20275;-79
2022/03/01 07:52:46;;;;;;;10.97;6.73;;;;;;;1.71;100.00;100445.97;5164962;27;20204;-79
2022/03/01 07:55:14;;;;;;;11.40;7.53;;;;;;;1.73;100.00;100447.69;5167871;27;20189;-80
2022/03/01 07:57:43;;;;;;;12.67;7.77;;;;;;;1.72;100.00;100448.56;5171740;27;20211;-79
2022/03/01 08:00:12;;;;;;;9.73;7.03;;;;;;;1.73;100.00;100446.81;5173127;27;20197;-79
2022/03/01 08:02:41;;;;;;;12.20;7.30;;;;;;;1.87;100.00;100441.50;5169043;27;20644;-79
2022/03/01 08:05:11;;;;;;;13.90;7.33;;;;;;;1.63;100.00;100438.19;5169584;27;20217;-79
2022/03/01 08:07:52;;;;;;;12.00;7.40;;;;;;;1.78;100.00;100442.44;5169461;27;20231;-79
2022/03/01 08:10:20;;;;;;;12.23;7.40;;;;;;;1.82;100.00;100445.88;5172502;27;20218;-79
2022/03/01 08:12:49;;;;;;;12.20;7.33;;;;;;;1.90;100.00;100441.47;5171898;27;20193;-79
2022/03/01 08:15:17;;;;;;;12.73;7.37;;;;;;;1.95;100.00;100448.41;5167697;27;20240;-79
2022/03/01 08:17:51;;;;;;;12.80;7.40;;;;;;;1.88;99.22;100451.06;5168046;27;20273;-79
2022/03/01 08:20:19;;;;;;;12.33;6.80;;;;;;;1.92;98.58;100444.94;5167434;27;20206;-79
2022/03/01 08:22:47;;;;;;;11.33;6.70;;;;;;;2.08;97.86;100449.16;5171140;27;20651;-78
2022/03/01 08:25:19;;;;;;;13.20;6.57;;;;;;;2.16;96.60;100457.81;5168451;27;20217;-79
2022/03/01 08:27:48;;;;;;;10.87;6.90;;;;;;;2.16;95.87;100444.72;5173092;27;20197;-79
2022/03/01 08:30:17;;;;;;;13.47;7.13;;;;;;;2.26;95.49;100451.59;5170253;27;20193;-79
2022/03/01 08:32:46;;;;;;;12.37;6.80;;;;;;;2.36;95.78;100447.16;5167719;27;20643;-79
2022/03/01 08:35:16;;;;;;;11.87;7.70;;;;;;;2.50;94.71;100437.41;5170467;27;20185;-79
2022/03/01 08:37:44;;;;;;;13.70;7.37;;;;;;;2.61;94.00;100434.69;5168143;27;20220;-79
2022/03/01 08:40:14;;;;;;;10.97;6.63;;;;;;;2.65;93.00;100441.63;5156283;27;20249;-79
2022/03/01 08:42:44;;;;;;;11.03;6.50;;;;;;;2.77;92.47;100453.69;5079939;27;20194;-79
2022/03/01 08:45:13;;;;;;;9.67;6.17;;;;;;;2.88;91.48;100452.66;5134049;27;20209;-79
2022/03/01 08:47:42;;;;;;;14.63;6.80;;;;;;;2.90;90.12;100443.97;5129667;27;20281;-80
2022/03/01 08:50:12;;;;;;;10.57;7.03;;;;;;;3.00;88.92;100441.22;5127293;27;20201;-79
2022/03/01 08:53:01;;;;;;;12.07;7.03;;;;;;;3.23;88.12;100440.03;5133874;28;20228;-80
2022/03/01 08:55:30;;;;;;;11.63;6.80;;;;;;;3.23;87.86;100433.03;5123243;28;20194;-80
2022/03/01 08:58:00;;;;;;;12.10;7.33;;;;;;;3.41;86.87;100437.16;5130960;28;20186;-80
2022/03/01 09:00:29;;;;;;;12.07;7.07;;;;;;;3.47;86.52;100439.69;5134271;28;20195;-79
2022/03/01 09:02:58;;;;;;;10.80;6.80;;;;;;;3.51;84.59;100432.66;5129584;28;20216;-80
2022/03/01 09:05:27;;;;;;;13.27;6.87;;;;;;;3.55;84.11;100429.97;5129191;28;20276;-78
2022/03/01 09:07:55;;;;;;;13.23;7.10;;;;;;;3.59;83.24;100426.44;5124737;28;20194;-78
2022/03/01 09:10:29;;;;;;;9.97;6.33;;;;;;;3.66;81.13;100421.94;5128848;28;20182;-78
2022/03/01 09:13:00;;;;;;;11.37;7.00;;;;;;;3.75;81.82;100411.31;5133458;28;20186;-79
2022/03/01 09:15:32;;;;;;;11.87;7.20;;;;;;;3.95;81.56;100416.22;5120940;28;20198;-80
2022/03/01 09:18:01;;;;;;;11.33;7.20;;;;;;;3.82;81.09;100412.09;5126260;28;20209;-80
2022/03/01 09:20:32;;;;;;;9.37;6.37;;;;;;;4.25;80.99;100417.47;5121719;28;20190;-80
2022/03/01 09:23:02;;;;;;;10.37;6.83;;;;;;;4.34;79.46;100408.53;5130810;28;20289;-80
2022/03/01 09:25:31;;;;;;;12.93;8.03;;;;;;;4.37;78.91;100404.13;5128022;28;20281;-79
2022/03/01 09:28:01;;;;;;;13.80;9.47;;;;;;;4.74;77.56;100395.56;5129563;28;20190;-80
2022/03/01 09:30:32;;;;;;;12.57;7.67;;;;;;;5.02;74.80;100387.94;5127092;28;20274;-80
2022/03/01 09:33:00;;;;;;;10.97;6.73;;;;;;;4.91;72.17;100388.16;5133834;28;20194;-80
2022/03/01 09:35:32;;;;;;;10.87;6.60;;;;;;;4.88;71.11;100383.00;5128950;28;20197;-80
2022/03/01 09:38:00;;;;;;;10.00;5.97;;;;;;;4.88;71.14;100390.88;5122176;28;20194;-80
2022/03/01 09:40:29;;;;;;;9.63;6.07;;;;;;;4.84;72.57;100387.47;5126362;27;20273;-79
2022/03/01 09:42:57;;;;;;;11.90;6.27;;;;;;;4.93;72.58;100382.91;5125136;27;20221;-80
2022/03/01 09:45:29;;;;;;;11.33;6.80;;;;;;;4.76;73.27;100394.63;5128039;27;20198;-79
2022/03/01 09:47:58;;;;;;;10.60;6.07;;;;;;;5.03;71.21;100384.44;5047973;28;20189;-79
2022/03/01 09:50:29;;;;;;;10.00;6.30;;;;;;;5.08;72.28;100386.06;5049301;28;20280;-80
2022/03/01 09:52:59;;;;;;;12.13;6.80;;;;;;;5.31;72.03;100382.94;5042582;28;20880;-80
2022/03/01 09:55:29;;;;;;;9.83;6.40;;;;;;;5.25;70.58;100382.19;5050390;28;20204;-79
2022/03/01 09:57:58;;;;;;;9.80;5.90;;;;;;;5.44;69.77;100376.47;5001847;28;20193;-79
2022/03/01 10:00:29;;;;;;;10.77;6.17;;;;;;;5.58;68.23;100383.16;5049858;28;20781;-79
2022/03/01 10:02:59;;;;;;;11.83;6.50;;;;;;;5.88;67.21;100395.56;5050502;28;20279;-79
2022/03/01 10:05:37;;;;;;;10.40;6.80;;;;;;;5.98;63.84;100385.69;5063829;27;20637;-80
2022/03/01 10:08:10;;;;;;;10.07;6.77;;;;;;;5.74;64.89;100395.03;5134043;27;20218;-79
2022/03/01 10:10:43;;;;;;;9.57;6.63;;;;;;;5.55;63.31;100394.63;5133018;27;20218;-79
2022/03/01 10:13:14;;;;;;;10.43;6.33;;;;;;;5.31;63.76;100389.94;5133894;27;20199;-79
2022/03/01 10:15:44;;;;;;;12.40;7.03;;;;;;;5.51;63.56;100397.38;5129913;27;20233;-79
2022/03/01 10:18:16;;;;;;;10.03;6.60;;;;;;;5.42;62.41;100399.31;5131323;27;20193;-80
2022/03/01 10:20:47;;;;;;;10.57;6.67;;;;;;;5.46;62.01;100408.84;5135858;27;20201;-80
2022/03/01 10:23:23;;;;;;;9.17;6.20;;;;;;;5.51;63.33;100407.88;5128221;27;20206;-79
2022/03/01 10:25:52;;;;;;;8.57;5.73;;;;;;;5.42;61.92;100411.59;5125992;27;20202;-80
2022/03/01 10:28:33;;;;;;;11.13;6.60;;;;;;;5.21;62.62;100410.31;5128939;27;20194;-80
2022/03/01 10:31:13;;;;;;;11.03;6.63;;;;;;;5.77;62.39;100409.88;5129220;27;20200;-80
2022/03/01 10:33:54;;;;;;;11.70;7.43;;;;;;;6.36;60.64;100413.66;5128499;27;20217;-79
2022/03/01 10:36:24;;;;;;;11.57;6.80;;;;;;;6.60;58.61;100415.63;5124295;27;20205;-80
2022/03/01 10:39:09;;;;;;;10.63;7.30;;;;;;;6.49;56.56;100415.06;5129550;27;20197;-80
2022/03/01 10:41:39;;;;;;;11.87;7.63;;;;;;;6.18;56.96;100430.81;5154302;27;20220;-80
2022/03/01 10:44:13;;;;;;;10.10;6.37;;;;;;;6.35;57.47;100426.84;5157239;27;20185;-80
2022/03/01 10:46:47;;;;;;;11.20;6.10;;;;;;;6.70;56.09;100421.50;5152399;27;20296;-80
2022/03/01 10:49:19;;;;;;;9.97;6.07;;;;;;;7.08;54.43;100412.50;5151287;27;20198;-80
2022/03/01 10:51:52;;;;;;;11.70;6.63;;;;;;;7.40;55.13;100410.66;5146709;27;20198;-79
2022/03/01 10:54:29;;;;;;;10.80;6.73;;;;;;;7.41;54.99;100401.84;5092839;28;20257;-79
2022/03/01 10:56:58;;;;;;;14.03;6.50;;;;;;;7.85;52.50;100402.22;5084540;28;20206;-80
2022/03/01 10:59:28;;;;;;;9.37;6.23;;;;;;;7.28;52.87;100409.28;5086182;28;20198;-80
2022/03/01 11:01:59;;;;;;;10.47;6.50;;;;;;;7.25;52.18;100413.78;5093155;28;20623;-80
2022/03/01 11:04:28;;;;;;;8.87;6.03;;;;;;;7.53;51.26;100396.22;5088233;28;20199;-80
2022/03/01 11:07:00;;;;;;;12.47;7.00;;;;;;;7.68;51.04;100400.13;5086569;28;20215;-80
2022/03/01 11:09:30;;;;;;;9.93;6.17;;;;;;;8.36;49.45;100394.31;5087351;28;20192;-80
2022/03/01 11:12:01;;;;;;;11.97;6.13;;;;;;;8.26;48.81;100393.75;5104792;27;20224;-80
2022/03/01 11:14:32;;;;;;;10.90;6.60;;;;;;;8.21;47.92;100384.28;5156641;27;20231;-80
2022/03/01 11:17:09;;;;;;;10.77;7.13;;;;;;;7.19;50.25;100383.19;5150480;27;20647;-81
2022/03/01 11:19:53;;;;;;;11.23;6.77;;;;;;;6.87;52.89;100376.25;5099876;27;20185;-80
2022/03/01 11:22:28;;;;;;;10.00;6.03;;;;;;;7.79;49.93;100371.63;5152760;27;20204;-81
2022/03/01 11:24:57;;;;;;;9.20;6.03;;;;;;;8.19;47.67;100367.63;5148582;27;20192;-81
2022/03/01 11:27:27;;;;;;;12.90;6.70;;;;;;;8.52;46.07;100370.91;5144167;27;20217;-80
2022/03/01 11:30:07;;;;;;;9.13;6.37;;;;;;;8.51;45.89;100374.44;5148870;27;20189;-80
2022/03/01 11:32:43;;;;;;;10.30;6.80;;;;;;;8.22;46.33;100365.75;5153242;27;20198;-80